Time;durP1;ratioP1;P1;durP2;ratioP2;P2;SDS_P1;SDS_P2;PMS_P1;PMS_P2;Temp;Humidity;BMP_temperature;BMP_pressure;BME280_temperature;BME280_humidity;BME280_pressure;Samples;Min_cycle;Max_cycle;Signal;HPM_P1;HPM_P2
2022/06/06 00:14:01;;;;;;;8.40;7.60;;;;;;;15.21;63.23;100160.72;30871142;28;96744;-68
2022/06/06 00:29:03;;;;;;;8.35;7.55;;;;;;;15.10;63.73;100129.94;30870259;28;97049;-68
2022/06/06 00:44:10;;;;;;;9.33;7.60;;;;;;;14.98;64.00;100080.59;30867808;28;97495;-68
2022/06/06 00:59:19;;;;;;;8.03;7.23;;;;;;;14.85;64.37;100057.25;30867316;28;97076;-68
2022/06/06 01:14:23;;;;;;;13.23;7.70;;;;;;;14.77;64.46;100087.75;30865219;28;96731;-69
2022/06/06 01:29:28;;;;;;;8.33;7.53;;;;;;;14.67;64.32;100079.25;30863718;28;96741;-68
2022/06/06 01:44:51;;;;;;;8.17;6.90;;;;;;;14.63;64.80;100056.56;30859823;28;96756;-68
2022/06/06 01:59:53;;;;;;;8.13;6.63;;;;;;;14.85;64.51;100039.28;30860874;28;97240;-68
2022/06/06 02:14:53;;;;;;;8.00;6.57;;;;;;;14.99;63.44;100036.66;30859339;28;96727;-68
2022/06/06 02:29:54;;;;;;;9.30;7.03;;;;;;;15.19;63.08;100031.31;30858600;28;98105;-68
2022/06/06 02:44:54;;;;;;;7.30;6.53;;;;;;;15.08;62.67;100027.38;30857036;28;96717;-68
2022/06/06 02:59:57;;;;;;;10.30;7.15;;;;;;;15.03;62.66;100027.97;30855504;28;96756;-68
2022/06/06 03:14:57;;;;;;;;;;;;;;;14.90;63.21;100044.06;30853676;28;96712;-68
2022/06/06 03:30:10;;;;;;;8.93;6.95;;;;;;;15.11;63.20;100048.44;30854614;28;96744;-68
2022/06/06 03:45:30;;;;;;;;;;;;;;;15.35;62.69;100048.88;30851679;28;96790;-69
2022/06/06 04:00:33;;;;;;;8.50;7.33;;;;;;;15.67;61.83;100051.78;30898058;28;97456;-68
2022/06/06 04:15:49;;;;;;;10.90;7.80;;;;;;;16.03;61.02;100050.53;31029505;28;96747;-68
2022/06/06 04:30:59;;;;;;;13.03;9.00;;;;;;;16.56;59.77;100055.75;30983339;28;97404;-70
2022/06/06 04:46:17;;;;;;;9.70;7.97;;;;;;;16.67;59.03;100050.75;30982572;28;96933;-71
2022/06/06 05:01:18;;;;;;;11.97;8.50;;;;;;;16.71;58.42;100049.28;30982364;28;96721;-72
2022/06/06 05:16:55;;;;;;;13.73;9.25;;;;;;;16.92;59.10;100059.75;30983197;28;97677;-72
2022/06/06 05:32:04;;;;;;;10.40;8.07;;;;;;;17.57;57.67;100056.00;30984710;28;97595;-70
2022/06/06 05:47:35;;;;;;;10.63;7.70;;;;;;;18.44;56.06;100048.97;30980207;28;96723;-69
2022/06/06 06:03:05;;;;;;;10.50;8.17;;;;;;;19.66;53.25;100067.84;30979302;28;96899;-69
2022/06/06 06:18:47;;;;;;;9.83;7.63;;;;;;;20.06;52.96;100080.69;30978910;28;96770;-68
2022/06/06 06:33:50;;;;;;;9.67;7.80;;;;;;;21.09;52.25;100077.41;30971389;28;96828;-69
2022/06/06 06:48:56;;;;;;;10.40;8.40;;;;;;;21.44;52.19;100088.06;30974774;28;97009;-68
2022/06/06 07:19:47;;;;;;;10.07;6.47;;;;;;;23.52;48.63;100092.41;30963289;28;97681;-67
2022/06/06 07:35:20;;;;;;;11.10;6.03;;;;;;;24.01;47.15;100103.16;30969707;28;96736;-68
2022/06/06 07:50:25;;;;;;;8.13;6.40;;;;;;;23.95;46.98;100110.47;30982834;28;97123;-69
2022/06/06 08:05:59;;;;;;;9.60;6.07;;;;;;;24.01;47.39;100107.78;30990313;28;97180;-69
2022/06/06 08:21:21;;;;;;;7.53;5.53;;;;;;;23.82;49.01;100138.06;30991767;28;96912;-68
2022/06/06 08:36:30;;;;;;;7.87;6.30;;;;;;;24.41;48.52;100149.94;30991088;28;97470;-68
2022/06/06 08:51:33;;;;;;;8.67;6.50;;;;;;;24.33;47.19;100160.25;30957104;28;97960;-72
2022/06/06 09:06:58;;;;;;;8.00;5.87;;;;;;;23.78;48.62;100158.72;30863123;28;96692;-68
2022/06/06 09:22:26;;;;;;;7.90;6.20;;;;;;;23.31;50.96;100185.44;30862206;28;96987;-72
2022/06/06 09:37:32;;;;;;;6.97;5.57;;;;;;;22.62;53.58;100189.50;30862574;28;96986;-67
2022/06/06 09:52:51;;;;;;;6.20;5.60;;;;;;;22.94;53.75;100179.84;30862548;28;96788;-72
2022/06/06 10:08:19;;;;;;;5.77;5.10;;;;;;;23.84;52.56;100168.56;30858370;28;96805;-69
2022/06/06 10:23:37;;;;;;;6.03;4.97;;;;;;;26.23;49.18;100159.13;30855962;28;96797;-68
2022/06/06 10:39:20;;;;;;;5.10;4.17;;;;;;;26.89;46.50;100172.88;30854492;28;97526;-70
2022/06/06 10:54:42;;;;;;;4.73;3.30;;;;;;;26.29;46.26;100170.88;30841497;28;96803;-67
2022/06/06 11:10:00;;;;;;;1.90;1.70;;;;;;;25.54;48.11;100180.38;30852871;28;97025;-68
2022/06/06 11:25:21;;;;;;;1.30;1.20;;;;;;;24.28;49.51;100189.34;30865726;28;97160;-67
2022/06/06 11:40:40;;;;;;;3.07;1.10;;;;;;;23.59;51.14;100194.47;30944178;28;97647;-67
2022/06/06 11:56:06;;;;;;;1.83;1.30;;;;;;;23.80;51.10;100194.66;30994081;28;97155;-66
2022/06/06 12:11:31;;;;;;;2.67;1.40;;;;;;;23.22;52.11;100197.03;30990525;28;96814;-66
2022/06/06 12:26:49;;;;;;;1.87;1.40;;;;;;;21.60;56.19;100200.31;30989414;28;97440;-66
2022/06/06 12:42:13;;;;;;;3.80;1.80;;;;;;;21.24;57.87;100199.59;30987717;28;96727;-69
2022/06/06 12:57:16;;;;;;;3.17;1.83;;;;;;;21.35;58.53;100194.38;30986951;28;96978;-69
2022/06/06 13:12:39;;;;;;;4.50;2.37;;;;;;;21.08;60.04;100184.13;30981953;28;96869;-67
2022/06/06 13:27:55;;;;;;;3.57;2.30;;;;;;;21.56;59.08;100179.38;30985294;28;96870;-67
2022/06/06 13:43:17;;;;;;;5.33;3.27;;;;;;;22.25;58.65;100171.00;30981215;28;97093;-67
2022/06/06 13:58:49;;;;;;;7.20;3.37;;;;;;;23.00;55.89;100146.22;30980724;28;97674;-67
2022/06/06 14:13:56;;;;;;;6.27;3.80;;;;;;;23.10;55.31;100159.09;30980004;28;97009;-68
2022/06/06 14:29:12;;;;;;;5.37;3.70;;;;;;;23.13;54.65;100158.63;31036542;28;96960;-67
2022/06/06 14:44:14;;;;;;;5.57;3.30;;;;;;;24.02;53.70;100123.84;31033823;28;96992;-68
2022/06/06 14:59:18;;;;;;;5.00;3.33;;;;;;;24.16;52.81;100116.84;31034695;28;96859;-68
2022/06/06 15:14:26;;;;;;;5.43;3.43;;;;;;;24.50;51.58;100113.78;31038461;28;96827;-67
2022/06/06 15:29:33;;;;;;;7.80;3.33;;;;;;;24.52;51.77;100118.94;30996401;28;97407;-66
2022/06/06 15:44:39;;;;;;;5.43;3.60;;;;;;;24.41;50.90;100112.66;31068118;28;97082;-66
2022/06/06 16:00:19;;;;;;;4.00;3.50;;;;;;;23.40;52.19;100098.03;31044298;28;96794;-65
2022/06/06 16:15:22;;;;;;;5.57;4.40;;;;;;;23.23;53.61;100087.28;30995964;28;96921;-65
2022/06/06 16:30:30;;;;;;;5.10;4.23;;;;;;;23.06;54.40;100087.31;31065314;28;97929;-65
2022/06/06 17:01:46;;;;;;;6.07;3.60;;;;;;;22.32;56.83;100078.56;31046907;28;97186;-66
2022/06/06 17:17:08;;;;;;;4.07;3.43;;;;;;;21.91;58.38;100073.41;30929915;28;97625;-66
2022/06/06 17:32:16;;;;;;;4.20;3.50;;;;;;;21.65;58.96;100069.44;31062957;28;96711;-66
2022/06/06 17:47:39;;;;;;;5.33;4.50;;;;;;;21.28;59.97;100064.47;30924219;28;97654;-66
2022/06/06 18:03:05;;;;;;;7.10;3.50;;;;;;;20.97;61.86;100069.34;30850866;28;96997;-67
2022/06/06 18:18:13;;;;;;;5.63;3.77;;;;;;;20.80;63.04;100058.47;30906148;28;96786;-66
2022/06/06 18:33:28;;;;;;;5.53;3.80;;;;;;;20.68;63.70;100054.94;30973954;28;96863;-65
2022/06/06 18:48:28;;;;;;;7.77;3.67;;;;;;;20.52;64.30;100051.13;30969264;28;97048;-66
2022/06/06 19:03:39;;;;;;;4.18;3.78;;;;;;;20.24;64.90;100058.94;30967223;28;96735;-67
2022/06/06 19:18:39;;;;;;;;;;;;;;;19.89;65.97;100086.00;30966073;28;97254;-68
2022/06/06 19:33:48;;;;;;;7.60;4.55;;;;;;;19.47;67.13;100067.94;30966168;28;97764;-66
2022/06/06 19:48:54;;;;;;;5.90;4.83;;;;;;;18.98;68.75;100059.13;30983164;28;97206;-66
2022/06/06 20:04:10;;;;;;;7.10;4.90;;;;;;;18.61;70.86;100058.09;30984129;28;97598;-66
2022/06/06 20:19:21;;;;;;;11.23;6.43;;;;;;;18.12;72.42;100046.41;30983547;28;96911;-65
2022/06/06 20:34:39;;;;;;;7.77;6.27;;;;;;;17.78;74.09;100040.50;30980226;28;96746;-66
2022/06/06 20:49:49;;;;;;;9.77;7.07;;;;;;;17.52;75.10;100039.69;30980232;28;97556;-66
2022/06/06 21:04:49;;;;;;;8.73;6.83;;;;;;;17.25;76.61;100039.88;30978735;28;96812;-66
2022/06/06 21:19:49;;;;;;;11.85;7.57;;;;;;;17.10;77.73;100047.47;30978026;28;97623;-65
2022/06/06 21:34:51;;;;;;;21.23;7.43;;;;;;;16.87;78.50;100047.97;30977573;28;97093;-66
2022/06/06 21:49:51;;;;;;;10.07;6.93;;;;;;;16.69;79.35;100048.66;30929324;28;97396;-66
2022/06/06 22:04:52;;;;;;;9.10;6.43;;;;;;;16.60;80.15;100044.59;30860415;28;96728;-67
2022/06/06 22:19:52;;;;;;;10.95;6.38;;;;;;;16.45;80.32;100044.84;30859650;28;96814;-67
2022/06/06 22:34:53;;;;;;;10.57;7.43;;;;;;;16.38;80.82;100061.00;30858459;28;97178;-66
2022/06/06 22:49:53;;;;;;;12.23;7.28;;;;;;;16.34;81.44;100100.09;30855698;28;97415;-67
2022/06/06 23:04:54;;;;;;;11.65;7.60;;;;;;;16.24;81.51;100079.03;30856978;28;97606;-67
2022/06/06 23:19:54;;;;;;;9.40;7.63;;;;;;;16.19;81.74;100066.19;30854438;28;96653;-67
2022/06/06 23:34:54;;;;;;;12.35;8.07;;;;;;;15.93;81.86;100063.59;30854815;28;96879;-66
2022/06/06 23:49:57;;;;;;;11.43;8.70;;;;;;;15.94;82.45;100052.63;30853866;28;97306;-66
